Piacenza San Damiano Air Base

LIMS · Emilia-Romagna, 意大利

使用的METAR站距离机场69 km。
罗盘
风向 的 风向 010° Piacenza San Damiano Air Base 12/30
风: 8 kt, 3 beaufort

3 kt

8 kt
改变
0 ft 1.000 2.000 3.000 4.000 5.000
Cloud Cloud Cloud Cloud
SCT 2.000
Cloud Cloud Cloud Cloud Cloud Cloud
BKN 3.000
METAR LIML 270050Z 01008KT 9999 RA SCT020 BKN030 07/06 Q1006 NOSIG

METAR Piacenza San Damiano Air Base - LIMS

Piacenza San Damiano Air Base是,意大利中的中型机场。 该机场位于纬度44,91440和经度9,72213。 该机场有一条跑道: 12/30. 本场的ICAO机场代码为LIMS。 机场在Milano FIR中。

该航空气象观测是针对Milano Linate Airport在2024年2月27日 01:50, 当地时间进行的。

机场观察

风向为010°,速度为8 kt。

可见度为10 km 或者更多。

有疏云,零星散落的云朵在2.000 ft的高度 和 碎云在3.000 ft的高度。 破损或更高的上限为3.000 ft。

当前天气为雨。 温度为7 °C,阵风为3 °C。 露点为6 °C,相对湿度为93%。 海平面上的气压为1006 hPa (QNH)。

白天

今天,太阳从07:02升起,在18:04降落。 这适用于Piacenza San Damiano Air Base,世界夏令时可能有所不同。 当地时间与世界标准时间之间的时差为+1 小时。 当前,没有夏令时有效。

公司介绍

我们没有关于这个机场的公司信息。

体会

到Vliegles.nl去找飞行课程,跳伞和其他飞行体验。 浏览页面,了解Piacenza San Damiano Air Base附近所有可用的活动。 你也可以使用搜索功能来寻找你所在地附近的特定飞行课程、跳伞或其他飞行体验。

跑道

Id 标题 侧风 逆风 侧风 %
12/30 120°-300° 8 kt 3 kt 94 %

逆风成分最大的方向会被突出显示,并用于横风计算。 这并不一定意味着这个方向在使用。

乌云

2.000 ft SCT 疏云,零星散落的云朵
3.000 ft BKN 碎云

温度 & 天气

天气
温度 7 °C
露点 6 °C
相对湿度 93%
风寒 3 °C
Kp-index 3 (0-9)

白天

日出
07:05 (4:39)
中午
12:35
日落
18:05

小工具

你想在你的网站上有一个关于Piacenza San Damiano Air Base的当前航空天气(METAR)的小部件吗?

显示HTML代码
?>